createdAt,value
2018-02-09T00:00:09.906Z,27.70
2018-02-09T00:02:37.373Z,26.60
2018-02-09T00:05:04.857Z,28.98
2018-02-09T00:07:32.342Z,29.77
2018-02-09T00:09:59.839Z,31.33
2018-02-09T00:12:27.313Z,29.20
2018-02-09T00:14:54.813Z,29.98
2018-02-09T00:17:22.289Z,30.25
2018-02-09T00:19:50.554Z,31.77
2018-02-09T00:22:18.028Z,32.08
2018-02-09T00:24:46.281Z,29.87
2018-02-09T00:27:13.812Z,28.73
2018-02-09T00:29:41.326Z,26.87
2018-02-09T00:32:09.593Z,28.23
2018-02-09T00:34:37.845Z,29.20
2018-02-09T00:37:05.331Z,30.58
2018-02-09T00:39:33.606Z,31.37
2018-02-09T00:42:01.844Z,32.08
2018-02-09T00:44:29.383Z,29.37
2018-02-09T00:46:56.844Z,28.87
2018-02-09T00:49:24.375Z,31.83
2018-02-09T00:51:51.866Z,30.52
2018-02-09T00:54:19.369Z,31.50
2018-02-09T00:56:46.841Z,29.67
2018-02-09T00:59:15.098Z,30.15
2018-02-09T01:01:42.569Z,31.80
2018-02-09T01:04:10.829Z,31.70
2018-02-09T01:06:38.318Z,29.27
2018-02-09T01:09:06.574Z,31.58
2018-02-09T01:11:34.826Z,34.72
2018-02-09T01:14:02.305Z,31.50
2018-02-09T01:16:30.546Z,32.53
2018-02-09T01:18:58.038Z,31.87
2018-02-09T01:21:26.282Z,30.77
2018-02-09T01:23:53.762Z,30.67
2018-02-09T01:26:21.243Z,32.75
2018-02-09T01:28:49.492Z,32.35
2018-02-09T01:31:16.972Z,29.12
2018-02-09T01:33:45.217Z,28.83
2018-02-09T01:36:12.702Z,29.55
2018-02-09T01:38:40.950Z,30.12
2018-02-09T01:41:08.434Z,29.58
2018-02-09T01:43:36.682Z,29.23
2018-02-09T01:46:04.156Z,30.23
2018-02-09T01:48:32.414Z,32.45
2018-02-09T01:50:59.882Z,31.90
2018-02-09T01:53:28.166Z,30.42
2018-02-09T01:55:55.639Z,30.40
2018-02-09T01:58:23.915Z,31.35
2018-02-09T02:00:52.163Z,33.55
2018-02-09T02:03:19.668Z,35.13
2018-02-09T02:05:47.171Z,30.27
2018-02-09T02:08:14.664Z,31.08
2018-02-09T02:10:42.979Z,33.50
2018-02-09T02:13:10.472Z,34.58
2018-02-09T02:15:37.961Z,33.50
2018-02-09T02:18:06.203Z,34.30
2018-02-09T02:20:33.702Z,35.10
2018-02-09T02:23:01.942Z,34.58
2018-02-09T02:25:29.435Z,35.63
2018-02-09T02:27:57.683Z,31.20
2018-02-09T02:30:25.167Z,33.90
2018-02-09T02:32:53.492Z,36.10
2018-02-09T02:35:20.971Z,36.22
2018-02-09T02:37:48.476Z,32.22
2018-02-09T02:40:15.964Z,32.85
2018-02-09T02:42:43.463Z,31.92
2018-02-09T02:45:11.721Z,35.47
2018-02-09T02:47:39.201Z,32.55
2018-02-09T02:50:06.688Z,34.28
2018-02-09T02:52:34.166Z,32.33
2018-02-09T02:55:01.659Z,31.92
2018-02-09T02:57:29.140Z,33.08
2018-02-09T02:59:57.392Z,33.72
2018-02-09T03:02:24.889Z,29.87
2018-02-09T03:04:53.178Z,33.58
2018-02-09T03:07:20.657Z,32.33
2018-02-09T03:09:48.138Z,31.52
2018-02-09T03:12:15.618Z,30.45
2018-02-09T03:14:43.871Z,32.50
2018-02-09T03:17:11.362Z,30.25
2018-02-09T03:19:39.615Z,29.85
2018-02-09T03:22:07.094Z,30.58
2018-02-09T03:24:35.360Z,32.17
2018-02-09T03:27:02.840Z,33.25
2018-02-09T03:29:30.330Z,29.58
2018-02-09T03:31:57.806Z,32.45
2018-02-09T03:34:25.282Z,31.37
2018-02-09T03:36:52.765Z,34.17
2018-02-09T03:39:21.016Z,33.90
2018-02-09T03:41:48.498Z,34.90
2018-02-09T03:44:16.774Z,30.35
2018-02-09T03:46:44.218Z,33.92
2018-02-09T03:49:11.707Z,31.05
2018-02-09T03:51:39.191Z,31.95
2018-02-09T03:54:06.703Z,30.62
2018-02-09T03:56:34.948Z,32.20
2018-02-09T03:59:02.436Z,34.88
2018-02-09T04:01:30.682Z,34.50
2018-02-09T04:03:58.192Z,36.38
2018-02-09T04:06:25.667Z,36.38
2018-02-09T04:08:53.145Z,36.20
2018-02-09T04:11:20.702Z,32.03
2018-02-09T04:13:48.899Z,31.87
2018-02-09T04:16:16.389Z,33.90
2018-02-09T04:18:44.641Z,32.15
2018-02-09T04:21:12.119Z,33.40
2018-02-09T04:23:40.351Z,31.23
2018-02-09T04:26:07.839Z,34.97
2018-02-09T04:28:35.306Z,32.20
2018-02-09T04:31:03.569Z,34.40
2018-02-09T04:33:31.055Z,34.72
2018-02-09T04:35:58.544Z,34.58
2018-02-09T04:38:26.015Z,34.60
2018-02-09T04:40:53.500Z,34.58
2018-02-09T04:43:20.975Z,37.13
2018-02-09T04:45:49.224Z,33.67
2018-02-09T04:48:16.702Z,35.20
2018-02-09T04:50:44.950Z,34.55
2018-02-09T04:53:12.443Z,36.75
2018-02-09T04:55:40.693Z,34.72
2018-02-09T04:58:08.175Z,35.10
2018-02-09T05:00:36.443Z,35.25
2018-02-09T05:03:03.912Z,36.08
2018-02-09T05:05:32.157Z,34.53
2018-02-09T05:07:59.773Z,34.30
2018-02-09T05:10:27.247Z,34.55
2018-02-09T05:12:54.736Z,33.22
2018-02-09T05:15:22.223Z,33.45
2018-02-09T05:17:50.471Z,30.23
2018-02-09T05:20:17.959Z,30.98
2018-02-09T05:22:45.443Z,32.70
2018-02-09T05:25:12.922Z,32.28
2018-02-09T05:27:40.893Z,32.78
2018-02-09T05:30:08.388Z,33.22
2018-02-09T05:32:35.860Z,35.85
2018-02-09T05:35:04.125Z,35.47
2018-02-09T05:37:32.302Z,33.25
2018-02-09T05:40:00.575Z,33.83
2018-02-09T05:42:28.831Z,33.72
2018-02-09T05:44:56.345Z,33.50
2018-02-09T05:47:23.810Z,33.13
2018-02-09T05:49:51.299Z,32.10
2018-02-09T05:52:18.770Z,34.50
2018-02-09T05:54:46.250Z,33.10
2018-02-09T05:57:14.493Z,32.70
2018-02-09T05:59:42.000Z,31.30
2018-02-09T06:02:09.475Z,33.15
2018-02-09T06:04:36.962Z,35.88
2018-02-09T06:07:05.190Z,34.20
2018-02-09T06:09:32.665Z,35.83
2018-02-09T06:12:00.152Z,35.42
2018-02-09T06:14:27.627Z,33.28
2018-02-09T06:16:55.132Z,33.65
2018-02-09T06:19:22.599Z,33.28
2018-02-09T06:21:50.084Z,30.10
2018-02-09T06:24:17.566Z,33.67
2018-02-09T06:26:45.810Z,31.73
2018-02-09T06:29:13.286Z,32.08
2018-02-09T06:31:40.772Z,32.50
2018-02-09T06:34:09.018Z,31.98
2018-02-09T06:36:36.515Z,31.80
2018-02-09T06:39:04.014Z,29.37
2018-02-09T06:41:31.495Z,35.20
2018-02-09T06:43:58.982Z,32.33
2018-02-09T06:46:27.231Z,31.27
2018-02-09T06:48:54.710Z,30.65
2018-02-09T06:51:22.959Z,31.50
2018-02-09T06:53:50.461Z,31.90
2018-02-09T06:56:17.953Z,31.17
2018-02-09T06:58:45.426Z,29.90
2018-02-09T07:01:12.914Z,34.40
2018-02-09T07:03:41.157Z,35.85
2018-02-09T07:06:08.644Z,34.22
2018-02-09T07:08:36.895Z,33.50
2018-02-09T07:11:04.384Z,34.42
2018-02-09T07:13:32.619Z,31.65
2018-02-09T07:16:00.126Z,33.80
2018-02-09T07:18:28.374Z,31.85
2018-02-09T07:20:56.630Z,31.15
2018-02-09T07:23:24.116Z,31.12
2018-02-09T07:25:51.606Z,34.92
2018-02-09T07:28:19.084Z,32.85
2018-02-09T07:30:46.576Z,33.90
2018-02-09T07:33:14.058Z,29.73
2018-02-09T07:35:42.307Z,31.30
2018-02-09T07:38:09.778Z,30.75
2018-02-09T07:40:37.270Z,35.60
2018-02-09T07:43:04.742Z,36.15
2018-02-09T07:45:32.226Z,32.00
2018-02-09T07:47:59.703Z,30.90
2018-02-09T07:50:27.187Z,33.55
2018-02-09T07:52:55.447Z,31.08
2018-02-09T07:55:22.950Z,31.35
2018-02-09T07:57:50.419Z,31.05
2018-02-09T08:00:17.911Z,30.73
2018-02-09T08:02:45.386Z,32.13
2018-02-09T08:05:13.662Z,32.67
2018-02-09T08:07:41.918Z,33.97
2018-02-09T08:10:09.388Z,32.15
2018-02-09T08:12:36.872Z,30.67
2018-02-09T08:15:04.373Z,32.17
2018-02-09T08:17:31.870Z,32.80
2018-02-09T08:19:59.348Z,33.53
2018-02-09T08:22:27.595Z,33.13
2018-02-09T08:24:55.067Z,36.10
2018-02-09T08:27:23.715Z,36.80
2018-02-09T08:29:51.195Z,34.75
2018-02-09T08:32:18.747Z,36.20
2018-02-09T08:34:46.181Z,37.65
2018-02-09T08:37:13.663Z,48.25
2018-02-09T08:39:41.147Z,67.05
2018-02-09T08:42:09.397Z,62.97
2018-02-09T08:44:36.880Z,51.42
2018-02-09T08:47:05.133Z,53.03
2018-02-09T08:49:32.619Z,51.30
2018-02-09T08:52:00.882Z,54.20
2018-02-09T08:54:29.124Z,50.00
2018-02-09T08:56:56.619Z,43.90
2018-02-09T08:59:24.893Z,43.45
2018-02-09T09:01:52.372Z,45.67
2018-02-09T09:04:19.872Z,45.75
2018-02-09T09:06:47.367Z,46.67
2018-02-09T09:09:15.634Z,43.15
2018-02-09T09:11:43.174Z,43.33
2018-02-09T09:14:10.654Z,42.33
2018-02-09T09:16:38.153Z,41.88
2018-02-09T09:19:05.639Z,44.90
2018-02-09T09:21:33.126Z,44.70
2018-02-09T09:24:00.644Z,45.13
2018-02-09T09:26:28.145Z,44.15
2018-02-09T09:28:55.625Z,46.60
2018-02-09T09:31:23.116Z,43.28
2018-02-09T09:33:50.582Z,48.47
2018-02-09T09:36:18.079Z,50.30
2018-02-09T09:38:45.546Z,50.47
2018-02-09T09:41:13.796Z,49.47
2018-02-09T09:43:41.268Z,49.07
2018-02-09T09:46:08.763Z,49.43
2018-02-09T09:48:36.238Z,49.90
2018-02-09T09:51:03.730Z,52.50
2018-02-09T09:53:31.205Z,54.53
2018-02-09T09:55:58.730Z,54.93
2018-02-09T09:58:26.210Z,54.77
2018-02-09T10:00:53.682Z,53.53
2018-02-09T10:03:21.942Z,52.87
2018-02-09T10:05:49.424Z,52.63
2018-02-09T10:08:17.686Z,54.05
2018-02-09T10:10:45.167Z,50.87
2018-02-09T10:13:13.417Z,50.90
2018-02-09T10:15:40.890Z,53.93
2018-02-09T10:18:09.140Z,47.87
2018-02-09T10:20:36.616Z,51.70
2018-02-09T10:23:04.101Z,52.73
2018-02-09T10:25:31.595Z,51.63
2018-02-09T10:27:59.078Z,49.20
2018-02-09T10:30:26.568Z,48.43
2018-02-09T10:32:54.046Z,48.80
2018-02-09T10:35:21.523Z,47.63
2018-02-09T10:37:49.036Z,45.03
2018-02-09T10:40:16.504Z,46.37
2018-02-09T10:42:44.748Z,45.33
2018-02-09T10:45:12.223Z,44.77
2018-02-09T10:47:40.502Z,48.00
2018-02-09T10:50:07.959Z,49.07
2018-02-09T10:52:36.202Z,44.17
2018-02-09T10:55:03.674Z,47.80
2018-02-09T10:57:31.159Z,44.10
2018-02-09T11:00:00.077Z,48.03
2018-02-09T11:02:27.567Z,43.67
2018-02-09T11:04:55.039Z,42.67
2018-02-09T11:07:22.550Z,42.40
2018-02-09T11:09:50.022Z,39.53
2018-02-09T11:12:21.407Z,41.67
2018-02-09T11:14:48.880Z,40.93
2018-02-09T11:17:16.363Z,35.40
2018-02-09T11:19:44.603Z,39.00
2018-02-09T11:22:12.099Z,38.13
2018-02-09T11:24:39.588Z,38.83
2018-02-09T11:27:07.096Z,39.40
2018-02-09T11:29:34.547Z,40.27
2018-02-09T11:32:02.042Z,42.83
2018-02-09T11:34:29.519Z,40.10
2018-02-09T11:36:57.003Z,46.10
2018-02-09T11:39:24.504Z,39.83
2018-02-09T11:41:52.746Z,40.70
2018-02-09T11:44:20.231Z,41.47
2018-02-09T11:46:48.484Z,38.93
2018-02-09T11:49:15.971Z,36.97
2018-02-09T11:51:44.206Z,38.13
2018-02-09T11:54:11.706Z,42.20
2018-02-09T11:56:39.170Z,42.00
2018-02-09T11:59:06.665Z,44.50
2018-02-09T12:01:34.138Z,37.57
2018-02-09T12:04:01.614Z,37.87
2018-02-09T12:06:29.092Z,38.17
2018-02-09T12:08:57.347Z,39.33
2018-02-09T12:11:24.831Z,39.27
2018-02-09T12:13:53.072Z,37.80
2018-02-09T12:16:20.558Z,37.30
2018-02-09T12:18:48.799Z,37.70
2018-02-09T12:21:16.272Z,35.30
2018-02-09T12:23:43.754Z,37.63
2018-02-09T12:26:11.997Z,37.93
2018-02-09T12:28:39.482Z,35.20
2018-02-09T12:31:07.736Z,38.50
2018-02-09T12:33:35.220Z,36.63
2018-02-09T12:36:03.449Z,36.60
2018-02-09T12:38:30.922Z,36.73
2018-02-09T12:40:58.399Z,36.20
2018-02-09T12:43:25.874Z,34.97
2018-02-09T12:45:54.128Z,38.80
2018-02-09T12:48:21.609Z,35.80
2018-02-09T12:50:50.536Z,36.40
2018-02-09T12:53:18.017Z,36.40
2018-02-09T12:55:45.491Z,36.60
2018-02-09T12:58:12.979Z,34.40
2018-02-09T13:00:41.218Z,36.90
2018-02-09T13:03:08.704Z,34.73
2018-02-09T13:05:36.938Z,35.47
2018-02-09T13:08:04.410Z,36.43
2018-02-09T13:10:31.882Z,32.80
2018-02-09T13:13:10.823Z,37.03
2018-02-09T13:15:39.053Z,35.77
2018-02-09T13:18:06.548Z,35.33
2018-02-09T13:20:34.029Z,34.00
2018-02-09T13:23:13.979Z,34.63
2018-02-09T13:25:42.208Z,34.50
2018-02-09T13:28:15.607Z,32.23
2018-02-09T13:30:43.077Z,33.43
2018-02-09T13:33:31.302Z,31.77
2018-02-09T13:35:58.772Z,34.53
2018-02-09T13:38:26.284Z,31.57
2018-02-09T13:40:53.759Z,35.20
2018-02-09T13:43:21.235Z,33.50
2018-02-09T13:45:48.719Z,35.73
2018-02-09T13:48:16.198Z,30.60
2018-02-09T13:50:44.443Z,31.70
2018-02-09T13:53:11.960Z,33.23
2018-02-09T13:55:39.454Z,33.63
2018-02-09T13:58:06.951Z,33.93
2018-02-09T14:00:35.399Z,37.03
2018-02-09T14:03:03.710Z,33.93
2018-02-09T14:05:31.961Z,32.93
2018-02-09T14:07:59.430Z,34.37
2018-02-09T14:10:27.686Z,33.83
2018-02-09T14:12:55.167Z,35.33
2018-02-09T14:15:23.409Z,36.73
2018-02-09T14:17:50.943Z,34.27
2018-02-09T14:20:19.154Z,31.77
2018-02-09T14:22:46.646Z,34.70
2018-02-09T14:25:14.898Z,32.70
2018-02-09T14:27:42.366Z,32.17
2018-02-09T14:30:09.842Z,32.03
2018-02-09T14:32:37.323Z,30.10
2018-02-09T14:35:04.806Z,34.13
2018-02-09T14:37:32.288Z,34.03
2018-02-09T14:39:59.771Z,31.83
2018-02-09T14:42:28.013Z,34.90
2018-02-09T14:44:55.492Z,35.67
2018-02-09T14:47:22.967Z,34.50
2018-02-09T14:49:51.219Z,36.13
2018-02-09T14:52:18.694Z,35.00
2018-02-09T14:54:46.947Z,34.63
2018-02-09T14:57:14.430Z,32.50
2018-02-09T14:59:42.682Z,32.80
2018-02-09T15:02:10.165Z,30.93
2018-02-09T15:04:38.406Z,35.47
2018-02-09T15:07:05.880Z,37.47
2018-02-09T15:09:33.923Z,36.80
2018-02-09T15:12:01.393Z,35.00
2018-02-09T15:14:28.879Z,34.67
2018-02-09T15:16:57.130Z,34.03
2018-02-09T15:19:24.640Z,37.93
2018-02-09T15:21:52.109Z,38.47
2018-02-09T15:24:19.591Z,36.10
2018-02-09T15:26:47.066Z,35.87
2018-02-09T15:29:14.538Z,32.80
2018-02-09T15:31:42.022Z,33.40
2018-02-09T15:34:09.519Z,31.20
2018-02-09T15:36:37.006Z,34.43
2018-02-09T15:39:04.489Z,35.13
2018-02-09T15:41:32.751Z,34.60
2018-02-09T15:44:00.219Z,35.33
2018-02-09T15:46:28.521Z,35.00
2018-02-09T15:48:55.998Z,37.73
2018-02-09T15:51:23.482Z,37.17
2018-02-09T15:53:51.015Z,37.57
2018-02-09T15:56:18.504Z,39.10
2018-02-09T15:58:45.985Z,37.07
2018-02-09T16:01:14.262Z,36.10
2018-02-09T16:03:42.499Z,39.00
2018-02-09T16:06:09.986Z,37.13
2018-02-09T16:08:37.453Z,37.57
2018-02-09T16:11:04.936Z,37.87
2018-02-09T16:13:32.408Z,37.37
2018-02-09T16:15:59.894Z,39.20
2018-02-09T16:18:27.370Z,36.97
2018-02-09T16:20:54.874Z,39.50
2018-02-09T16:23:22.344Z,37.93
2018-02-09T16:25:49.825Z,39.03
2018-02-09T16:28:17.300Z,38.50
2018-02-09T16:30:44.771Z,39.97
2018-02-09T16:33:12.258Z,37.90
2018-02-09T16:35:40.494Z,39.67
2018-02-09T16:38:07.962Z,37.57
2018-02-09T16:40:35.451Z,39.80
2018-02-09T16:43:02.928Z,39.33
2018-02-09T16:45:30.414Z,40.43
2018-02-09T16:47:57.882Z,38.93
2018-02-09T16:50:25.379Z,38.60
2018-02-09T16:52:53.611Z,38.17
2018-02-09T16:55:21.096Z,35.17
2018-02-09T16:57:48.554Z,37.67
2018-02-09T17:00:16.803Z,38.10
2018-02-09T17:02:44.270Z,39.53
2018-02-09T17:05:11.759Z,37.57
2018-02-09T17:07:39.995Z,38.17
2018-02-09T17:10:07.484Z,36.10
2018-02-09T17:12:34.950Z,35.27
2018-02-09T17:15:03.198Z,37.43
2018-02-09T17:17:30.683Z,35.70
2018-02-09T17:19:58.930Z,37.77
2018-02-09T17:22:26.421Z,37.57
2018-02-09T17:24:54.658Z,37.83
2018-02-09T17:27:22.127Z,37.57
2018-02-09T17:29:49.602Z,36.33
2018-02-09T17:32:17.849Z,38.87
2018-02-09T17:34:45.327Z,37.07
2018-02-09T17:37:12.847Z,36.53
2018-02-09T17:39:40.342Z,36.70
2018-02-09T17:42:07.843Z,40.87
2018-02-09T17:44:35.341Z,37.60
2018-02-09T17:47:02.830Z,36.60
2018-02-09T17:49:30.360Z,38.83
2018-02-09T17:51:57.871Z,40.47
2018-02-09T17:54:25.345Z,42.37
2018-02-09T17:56:52.826Z,44.77
2018-02-09T17:59:20.331Z,40.87
2018-02-09T18:01:47.813Z,43.13
2018-02-09T18:04:15.274Z,38.37
2018-02-09T18:06:42.757Z,44.60
2018-02-09T18:09:10.250Z,38.10
2018-02-09T18:11:37.790Z,39.77
2018-02-09T18:14:05.227Z,36.57
2018-02-09T18:16:32.707Z,41.10
2018-02-09T18:19:00.174Z,39.73
2018-02-09T18:21:27.658Z,40.90
2018-02-09T18:23:55.896Z,41.57
2018-02-09T18:26:23.389Z,42.27
2018-02-09T18:28:51.629Z,42.37
2018-02-09T18:31:19.921Z,44.80
2018-02-09T18:33:47.415Z,39.53
2018-02-09T18:36:14.910Z,44.67
2018-02-09T18:38:42.387Z,43.23
2018-02-09T18:41:09.869Z,41.10
2018-02-09T18:43:37.338Z,40.33
2018-02-09T18:46:05.595Z,40.23
2018-02-09T18:48:33.080Z,40.53
2018-02-09T18:51:00.568Z,42.30
2018-02-09T18:53:28.051Z,40.63
2018-02-09T18:55:55.522Z,39.50
2018-02-09T18:58:23.024Z,38.80
2018-02-09T19:00:50.554Z,41.10
2018-02-09T19:03:18.798Z,37.50
2018-02-09T19:05:46.286Z,38.10
2018-02-09T19:08:13.766Z,36.37
2018-02-09T19:10:41.250Z,37.93
2018-02-09T19:13:08.746Z,40.20
2018-02-09T19:15:36.190Z,39.50
2018-02-09T19:18:03.670Z,39.73
2018-02-09T19:20:31.167Z,42.07
2018-02-09T19:22:58.656Z,38.20
2018-02-09T19:25:26.130Z,46.13
2018-02-09T19:27:53.611Z,41.63
2018-02-09T19:30:21.080Z,42.03
2018-02-09T19:32:49.332Z,40.57
2018-02-09T19:35:16.812Z,43.87
2018-02-09T19:37:44.283Z,34.37
2018-02-09T19:40:12.535Z,34.27
2018-02-09T19:42:40.628Z,32.43
2018-02-09T19:45:08.952Z,31.77
2018-02-09T19:47:36.428Z,31.50
2018-02-09T19:50:03.903Z,32.70
2018-02-09T19:52:31.387Z,32.17
2018-02-09T19:54:59.615Z,31.87
2018-02-09T19:57:27.085Z,34.20
2018-02-09T19:59:54.557Z,33.77
2018-02-09T20:02:22.044Z,36.10
2018-02-09T20:04:49.526Z,37.07
2018-02-09T20:07:17.004Z,32.77
2018-02-09T20:09:44.479Z,35.60
2018-02-09T20:12:11.942Z,33.90
2018-02-09T20:14:39.418Z,33.87
2018-02-09T20:17:07.668Z,34.93
2018-02-09T20:19:35.167Z,32.97
2018-02-09T20:22:02.662Z,32.17
2018-02-09T20:24:30.140Z,36.40
2018-02-09T20:26:57.666Z,31.83
2018-02-09T20:29:25.131Z,36.03
2018-02-09T20:31:52.616Z,37.17
2018-02-09T20:34:20.106Z,35.77
2018-02-09T20:36:48.339Z,41.03
2018-02-09T20:39:15.806Z,39.87
2018-02-09T20:41:43.302Z,38.07
2018-02-09T20:44:10.796Z,37.77
2018-02-09T20:46:38.302Z,42.00
2018-02-09T20:49:05.787Z,39.50
2018-02-09T20:51:33.270Z,37.17
2018-02-09T20:54:00.757Z,40.63
2018-02-09T20:56:28.231Z,41.20
2018-02-09T20:58:55.693Z,41.67
2018-02-09T21:01:23.946Z,39.70
2018-02-09T21:03:51.419Z,41.93
2018-02-09T21:06:18.903Z,43.60
2018-02-09T21:08:46.395Z,40.43
2018-02-09T21:11:13.880Z,41.07
2018-02-09T21:13:41.349Z,41.10
2018-02-09T21:16:08.827Z,48.50
2018-02-09T21:18:37.064Z,50.10
2018-02-09T21:21:04.567Z,53.93
2018-02-09T21:23:32.810Z,49.10
2018-02-09T21:26:00.315Z,43.27
2018-02-09T21:28:28.568Z,42.47
2018-02-09T21:30:56.039Z,42.73
2018-02-09T21:33:24.292Z,42.27
2018-02-09T21:35:51.770Z,43.80
2018-02-09T21:38:20.024Z,40.53
2018-02-09T21:40:47.499Z,40.40
2018-02-09T21:43:15.767Z,42.70
2018-02-09T21:45:43.242Z,40.43
2018-02-09T21:48:11.483Z,45.50
2018-02-09T21:50:42.411Z,39.70
2018-02-09T21:53:09.896Z,42.20
2018-02-09T21:55:37.359Z,40.60
2018-02-09T21:58:05.610Z,41.50
2018-02-09T22:00:33.079Z,42.67
2018-02-09T22:03:00.563Z,39.07
2018-02-09T22:05:28.790Z,32.63
2018-02-09T22:07:56.270Z,30.67
2018-02-09T22:10:23.759Z,33.10
2018-02-09T22:12:51.998Z,35.40
2018-02-09T22:15:19.501Z,34.57
2018-02-09T22:17:46.998Z,35.80
2018-02-09T22:20:14.476Z,33.20
2018-02-09T22:22:41.982Z,30.53
2018-02-09T22:25:09.496Z,26.63
2018-02-09T22:27:36.982Z,25.37
2018-02-09T22:30:05.223Z,23.33
2018-02-09T22:32:32.706Z,23.83
2018-02-09T22:35:00.207Z,25.27
2018-02-09T22:37:27.685Z,25.33
2018-02-09T22:39:55.175Z,24.90
2018-02-09T22:42:22.642Z,24.20
2018-02-09T22:44:50.883Z,23.40
2018-02-09T22:47:18.380Z,19.33
2018-02-09T22:49:45.866Z,23.53
2018-02-09T22:52:13.354Z,22.20
2018-02-09T22:54:40.834Z,24.33
2018-02-09T22:57:08.319Z,23.00
2018-02-09T22:59:36.568Z,24.77
2018-02-09T23:02:04.047Z,24.17
2018-02-09T23:04:31.510Z,23.80
2018-02-09T23:06:59.766Z,25.00
2018-02-09T23:09:27.239Z,24.93
2018-02-09T23:11:55.485Z,23.13
2018-02-09T23:14:22.958Z,22.23
2018-02-09T23:16:50.433Z,20.17
2018-02-09T23:19:18.677Z,20.50
2018-02-09T23:21:46.926Z,19.60
2018-02-09T23:24:14.434Z,20.97
2018-02-09T23:26:41.919Z,22.37
2018-02-09T23:29:10.146Z,19.90
2018-02-09T23:31:37.615Z,20.80
2018-02-09T23:34:05.136Z,20.27
2018-02-09T23:36:32.622Z,18.83
2018-02-09T23:39:00.090Z,18.33
2018-02-09T23:41:27.579Z,19.50
2018-02-09T23:43:55.822Z,17.87
2018-02-09T23:46:23.286Z,17.80
2018-02-09T23:48:50.848Z,18.50
2018-02-09T23:51:18.321Z,17.80
2018-02-09T23:53:45.805Z,18.77
2018-02-09T23:56:13.266Z,19.43
2018-02-09T23:58:40.751Z,18.70
